Lake Cuyamaca (79) Station Data

Red Flag Warning: No
Fire Weather Zone: 258
SDGE Region: Mountain Empire
Lat/Lon: 32.997/-116.595

Observations

Time Wind Speed/Gust Temp(F) RH Fuel Moist Fuel Temp(F) Dewpt(F) Tmax(F) Tmin(F) Accum Precip 10-min Precip SL Press(mb)
3/29 8:00am 87 14 G 21 55° 20% - - 14° 55.6° 48.9° - - -
3/29 7:40am 63 11 G 16 55° 18% - - 12° 55.1° 48.9° - - -
3/29 7:30am 68 11 G 17 54° 18% - - 12° 54.7° 48.9° - - -
3/29 7:20am 71 12 G 17 53° 19% - - 12° 54.6° 48.9° - - -
3/29 7:10am 66 12 G 17 53° 19% - - 12° 54.6° 48.9° - - -
3/29 6:50am 70 12 G 19 53° 19% - - 12° 54.6° 48.9° - - -
3/29 6:30am 66 11 G 18 53° 18% - - 11° 54.6° 48.9° - - -
3/29 6:20am 68 11 G 18 53° 19% - - 11° 54.6° 48.9° - - -
3/29 6:00am 94 14 G 18 50° 22% - - 13° 54.6° 48.9° - - -
3/29 5:40am 77 12 G 18 53° 18% - - 10° 54.6° 50.3° - - -
3/29 5:30am 73 11 G 16 53° 17% - - 10° 54.6° 50.3° - - -
3/29 5:20am 62 12 G 19 54° 17% - - 10° 54.6° 50.3° - - -
3/29 5:10am 51 13 G 18 54° 16% - - 54.6° 50.3° - - -
3/29 5:00am 52 14 G 21 54° 16% - - 54.6° 50.3° - - -
3/29 4:50am 50 14 G 20 54° 16% - - 54.6° 50.3° - - -
3/29 4:40am 51 13 G 20 54° 16% - - 54.6° 50.3° - - -
3/29 4:30am 56 15 G 22 54° 16% - - 54.6° 50.3° - - -
3/29 4:20am 55 14 G 22 54° 16% - - 54.5° 50.3° - - -
3/29 4:10am 52 14 G 22 54° 16% - - 54.2° 50.3° - - -
3/29 4:00am 59 12 G 18 53° 16% - - 53.6° 50.3° - - -
3/29 3:50am 65 14 G 21 53° 17% - - 53.5° 50.3° - - -
3/29 3:40am 65 14 G 18 52° 18% - - 52.7° 50.3° - - -
3/29 3:30am 65 14 G 18 52° 18% - - 10° 52.7° 50.3° - - -
3/29 3:20am 64 14 G 19 52° 18% - - 52.7° 50.3° - - -
3/29 3:10am 64 15 G 20 52° 18% - - 52.7° 50.3° - - -
3/29 3:00am 66 14 G 19 52° 18% - - 10° 52.7° 50.3° - - -
3/29 2:50am 65 14 G 18 52° 18% - - 10° 52.7° 50.3° - - -
3/29 2:40am 62 15 G 20 52° 18% - - 10° 52.7° 50.3° - - -
3/29 2:30am 65 14 G 20 52° 18% - - 10° 52.7° 50.3° - - -
3/29 2:20am 68 15 G 21 52° 19% - - 10° 52.7° 50.3° - - -
3/29 2:10am 70 16 G 22 52° 19% - - 10° 52.7° 50.3° - - -
3/29 2:00am 71 16 G 22 52° 19% - - 10° 52.7° 50.3° - - -
3/29 1:50am 68 14 G 20 51° 19% - - 10° 52.7° 50.3° - - -
3/29 1:40am 70 13 G 19 51° 19% - - 10° 52.7° 50.3° - - -
3/29 1:30am 77 10 G 15 51° 19% - - 10° 52.7° 50.3° - - -
3/29 1:20am 77 10 G 13 52° 17% - - 52.7° 51.2° - - -
3/29 1:10am 65 10 G 13 52° 17% - - 52.7° 51.2° - - -
3/29 1:00am 66 11 G 12 52° 16% - - 52.7° 51.2° - - -
3/29 12:50am 64 12 G 13 52° 17% - - 52.7° 51.2° - - -
3/29 12:40am 66 11 G 13 52° 18% - - 52.4° 51.2° - - -
3/29 12:30am 65 11 G 13 52° 18% - - 52.4° 51.2° - - -
3/29 12:20am 60 11 G 13 51° 19% - - 10° 52° 51.2° - - -
3/29 12:10am 58 11 G 13 52° 19% - - 10° 52° 51.4° - - -
3/29 12:00am 58 10 G 12 51° 19% - - 11° 61.5° 42.1° - - -
3/28 11:50pm 66 8 G 11 51° 21% - - 12° 61.5° 42.1° - - -
3/28 11:40pm 68 9 G 11 51° 21% - - 12° 61.5° 42.1° - - -
3/28 11:30pm 74 9 G 10 51° 23% - - 14° 61.5° 42.1° - - -
3/28 11:20pm 74 8 G 10 51° 23% - - 15° 61.5° 42.1° - - -
3/28 11:10pm 68 8 G 9 52° 23% - - 15° 61.5° 42.1° - - -
3/28 11:00pm 62 8 G 9 52° 24% - - 17° 61.5° 42.1° - - -
3/28 10:50pm 50 8 G 9 53° 30% - - 22° 61.5° 42.1° - - -
3/28 10:40pm 52 8 G 9 53° 30% - - 23° 61.5° 42.1° - - -
3/28 10:30pm 45 8 G 9 54° 24% - - 18° 61.5° 42.1° - - -
3/28 10:20pm 50 8 G 9 54° 27% - - 20° 61.5° 42.1° - - -
3/28 10:10pm 48 7 G 9 54° 26% - - 20° 61.5° 42.1° - - -
3/28 10:00pm 46 6 G 7 54° 21% - - 15° 61.5° 42.1° - - -
3/28 9:50pm 24 5 G 7 54° 22% - - 16° 61.5° 42.1° - - -
3/28 9:40pm 23 6 G 7 54° 25% - - 19° 61.5° 42.1° - - -
3/28 9:30pm 28 7 G 9 53° 33% - - 25° 61.5° 42.1° - - -
3/28 9:20pm 23 7 G 9 54° 34% - - 26° 61.5° 42.1° - - -
3/28 9:10pm 19 5 G 7 54° 31% - - 24° 61.5° 42.1° - - -
3/28 9:00pm 18 5 G 7 54° 28% - - 22° 61.5° 42.1° - - -
3/28 8:50pm 13 5 G 6 54° 31% - - 24° 61.5° 42.1° - - -
3/28 8:40pm 13 6 G 7 53° 41% - - 30° 61.5° 42.1° - - -
3/28 8:30pm 15 4 G 6 53° 36% - - 27° 61.5° 42.1° - - -
3/28 8:20pm 6 3 G 5 53° 28% - - 21° 61.5° 42.1° - - -
3/28 8:10pm 22 3 G 4 53° 28% - - 21° 61.5° 42.1° - - -
3/28 8:00pm 5 3 G 6 51° 46% - - 30° 61.5° 42.1° - - -
3/28 7:50pm 2 1 G 3 50° 62% - - 38° 61.5° 42.1° - - -
3/28 7:40pm 346 3 G 4 50° 64% - - 38° 61.5° 42.1° - - -
3/28 7:30pm 294 3 G 4 50° 64% - - 38° 61.5° 42.1° - - -
3/28 7:20pm 324 4 G 6 50° 64% - - 38° 61.5° 42.1° - - -
3/28 7:10pm 279 4 G 6 51° 63% - - 39° 61.5° 42.1° - - -
3/28 7:00pm 276 4 G 6 52° 61% - - 39° 61.5° 42.1° - - -
3/28 6:50pm 262 6 G 8 53° 58% - - 39° 61.5° 42.1° - - -
3/28 6:40pm 260 6 G 10 54° 57% - - 39° 61.5° 42.1° - - -
3/28 6:30pm 252 7 G 11 55° 56% - - 39° 61.5° 42.1° - - -
3/28 6:20pm 260 7 G 11 55° 55% - - 39° 61.5° 42.1° - - -
3/28 6:10pm 250 8 G 14 56° 53% - - 39° 61.5° 42.1° - - -
3/28 6:00pm 257 7 G 11 56° 52% - - 39° 61.5° 42.1° - - -
3/28 5:50pm 251 8 G 13 56° 53% - - 39° 61.5° 42.1° - - -
3/28 5:40pm 247 9 G 15 56° 54% - - 40° 61.5° 42.1° - - -
3/28 5:30pm 237 9 G 14 57° 50% - - 39° 61.5° 42.1° - - -
3/28 5:20pm 236 8 G 14 58° 44% - - 36° 61.5° 42.1° - - -
3/28 5:10pm 248 8 G 13 58° 41% - - 35° 61.5° 42.1° - - -
3/28 5:00pm 252 7 G 13 59° 40% - - 34° 61.5° 42.1° - - -
3/28 4:50pm 241 9 G 14 59° 38% - - 33° 61.5° 42.1° - - -
3/28 4:40pm 241 6 G 10 60° 36% - - 33° 61.5° 42.1° - - -
3/28 4:30pm 242 7 G 13 59° 36% - - 32° 61.5° 42.1° - - -
3/28 4:20pm 243 9 G 13 60° 36% - - 33° 61.5° 42.1° - - -
3/28 4:10pm 254 7 G 14 60° 36% - - 33° 61.5° 42.1° - - -
3/28 4:00pm 229 8 G 15 59° 36% - - 32° 61.5° 42.1° - - -
3/28 3:50pm 242 7 G 11 60° 35% - - 32° 61.5° 42.1° - - -
3/28 3:40pm 237 6 G 11 60° 35% - - 32° 61.5° 42.1° - - -
3/28 3:30pm 250 7 G 11 60° 35% - - 32° 61.5° 42.1° - - -
3/28 3:20pm 247 8 G 13 60° 35% - - 32° 61.5° 42.1° - - -
3/28 3:10pm 253 8 G 13 61° 35% - - 33° 61.5° 42.1° - - -
3/28 3:00pm 262 4 G 8 60° 36% - - 33° 61.5° 42.1° - - -
3/28 2:50pm 257 7 G 13 59° 37% - - 33° 59.8° 42.1° - - -
3/28 2:40pm 265 7 G 12 59° 37% - - 32° 59.5° 42.1° - - -
3/28 2:30pm 247 6 G 12 59° 37% - - 32° 59.4° 42.1° - - -
3/28 2:20pm 241 7 G 13 58° 38% - - 32° 59.2° 42.1° - - -
3/28 2:10pm 266 7 G 13 58° 38% - - 32° 59.2° 42.1° - - -
3/28 2:00pm 244 9 G 17 57° 38% - - 32° 59.2° 42.1° - - -
3/28 1:50pm 238 9 G 15 58° 36% - - 31° 59.2° 42.1° - - -
3/28 1:40pm 246 6 G 12 58° 35% - - 31° 58.9° 42.1° - - -
3/28 1:30pm 238 7 G 12 57° 35% - - 30° 58.4° 42.1° - - -
3/28 1:20pm 248 7 G 14 58° 34% - - 30° 58.4° 42.1° - - -
3/28 1:10pm 246 8 G 12 57° 34% - - 29° 58.4° 42.1° - - -
3/28 1:00pm 250 8 G 14 57° 35% - - 30° 58.4° 42.1° - - -
3/28 12:50pm 253 7 G 13 57° 35% - - 30° 58.4° 42.1° - - -
3/28 12:40pm 253 9 G 14 57° 34% - - 29° 58.4° 42.1° - - -
3/28 12:30pm 207 7 G 12 57° 30% - - 25° 58.4° 42.1° - - -
3/28 12:20pm 257 5 G 11 58° 27% - - 24° 58.4° 42.1° - - -
3/28 12:10pm 197 6 G 10 57° 21% - - 17° 58.2° 42.1° - - -
3/28 12:00pm 163 7 G 12 56° 19% - - 14° 57.1° 42.1° - - -
3/28 11:50am 158 7 G 14 56° 20% - - 16° 57.1° 42.1° - - -
3/28 11:40am 161 8 G 12 54° 20% - - 14° 56.5° 42.1° - - -
3/28 11:30am 155 8 G 13 54° 21% - - 15° 56.5° 42.1° - - -
3/28 11:20am 156 9 G 15 55° 21% - - 16° 56.5° 42.1° - - -
3/28 11:10am 145 5 G 11 55° 21% - - 16° 56.5° 42.1° - - -
3/28 11:00am 134 6 G 11 54° 22% - - 16° 54.8° 42.1° - - -
3/28 10:50am 104 8 G 14 54° 21% - - 15° 54.8° 42.1° - - -
3/28 10:40am 112 7 G 14 54° 21% - - 16° 54.8° 42.1° - - -
3/28 10:30am 93 7 G 14 54° 22% - - 16° 54.6° 42.1° - - -
3/28 10:20am 110 9 G 15 52° 22% - - 15° 53.1° 42.1° - - -
3/28 10:10am 113 9 G 17 52° 23% - - 15° 52.5° 42.1° - - -
3/28 10:00am 105 11 G 19 52° 23% - - 15° 52.1° 42.1° - - -
3/28 9:50am 112 9 G 17 51° 24% - - 16° 51.8° 42.1° - - -
3/28 9:40am 103 11 G 18 51° 23% - - 15° 51.3° 42.1° - - -
3/28 9:30am 100 11 G 20 51° 23% - - 14° 51.3° 42.1° - - -
3/28 9:20am 98 12 G 18 50° 23% - - 14° 50.7° 42.1° - - -
3/28 9:10am 98 12 G 18 50° 24% - - 15° 50.4° 42.1° - - -
3/28 9:00am 102 13 G 20 49° 25% - - 15° 49.5° 42.1° - - -
3/28 8:50am 103 13 G 19 49° 25% - - 15° 49.1° 42.1° - - -
3/28 8:40am 97 14 G 20 48° 25% - - 14° 48.8° 42.1° - - -
3/28 8:30am 100 13 G 18 48° 26% - - 15° 48.4° 42.1° - - -
3/28 8:20am 82 13 G 20 48° 26% - - 15° 48.2° 42.1° - - -
3/28 8:10am 73 11 G 19 47° 27% - - 15° 47.8° 42.1° - - -
3/28 8:00am 68 10 G 16 47° 27% - - 15° 47.3° 42.1° - - -
3/28 7:50am 73 12 G 18 47° 27% - - 14° 47.1° 42.1° - - -
3/28 7:40am 76 11 G 18 46° 28% - - 15° 47.1° 42.1° - - -
3/28 7:30am 72 11 G 15 45° 29% - - 15° 47.1° 42.1° - - -
3/28 7:20am 76 12 G 15 45° 29% - - 15° 47.1° 42.1° - - -
3/28 7:10am 72 11 G 15 45° 30% - - 15° 47.1° 42.1° - - -
3/28 7:00am 67 11 G 14 44° 31% - - 15° 47.1° 42.1° - - -
3/28 6:50am 70 10 G 14 44° 29% - - 14° 47.1° 42.1° - - -
3/28 6:40am 71 9 G 13 45° 27% - - 13° 47.1° 42.1° - - -
3/28 6:30am 68 9 G 13 45° 26% - - 12° 47.1° 42.1° - - -
3/28 6:20am 73 8 G 11 44° 28% - - 13° 47.1° 42.1° - - -
3/28 6:10am 92 10 G 12 43° 35% - - 17° 47.1° 42.1° - - -
3/28 6:00am 87 8 G 11 43° 34% - - 17° 47.1° 42.6° - - -
3/28 5:50am 63 7 G 10 44° 32% - - 16° 47.1° 42.8° - - -
3/28 5:40am 51 7 G 12 45° 29% - - 15° 47.1° 42.8° - - -